createdAt,value
2019-03-29T00:04:52.958Z,100221.30
2019-03-29T00:09:59.400Z,100214.86
2019-03-29T00:15:05.408Z,100224.15
2019-03-29T00:20:11.447Z,100220.98
2019-03-29T00:25:17.569Z,100227.67
2019-03-29T00:30:23.406Z,100216.09
2019-03-29T00:35:29.192Z,100222.45
2019-03-29T00:40:35.446Z,100217.75
2019-03-29T00:45:42.271Z,100219.20
2019-03-29T00:50:48.358Z,100211.78
2019-03-29T00:55:54.190Z,100212.30
2019-03-29T01:01:00.297Z,100211.42
2019-03-29T01:06:06.225Z,100209.75
2019-03-29T01:11:12.265Z,100211.55
2019-03-29T01:16:18.119Z,100207.63
2019-03-29T01:21:25.770Z,100213.95
2019-03-29T01:26:31.614Z,100209.91
2019-03-29T01:31:37.508Z,100210.98
2019-03-29T01:36:43.546Z,100211.39
2019-03-29T01:41:49.578Z,100214.66
2019-03-29T01:46:55.459Z,100211.36
2019-03-29T01:52:01.712Z,100210.91
2019-03-29T01:57:07.528Z,100209.08
2019-03-29T02:02:13.373Z,100200.06
2019-03-29T02:07:19.382Z,100195.97
2019-03-29T02:12:25.298Z,100190.45
2019-03-29T02:17:31.212Z,100181.27
2019-03-29T02:22:37.398Z,100185.39
2019-03-29T02:27:43.311Z,100179.49
2019-03-29T02:32:49.546Z,100170.27
2019-03-29T02:37:56.430Z,100152.28
2019-03-29T02:43:02.767Z,100156.88
2019-03-29T02:48:08.647Z,100156.20
2019-03-29T02:53:14.721Z,100146.41
2019-03-29T02:58:21.764Z,100150.67
2019-03-29T03:03:27.870Z,100151.45
2019-03-29T03:08:33.761Z,100158.22
2019-03-29T03:13:40.646Z,100149.70
2019-03-29T03:18:46.710Z,100150.26
2019-03-29T03:23:52.623Z,100149.81
2019-03-29T03:28:58.462Z,100149.30
2019-03-29T03:34:04.724Z,100147.65
2019-03-29T03:39:11.067Z,100148.83
2019-03-29T03:44:17.049Z,100148.64
2019-03-29T03:49:23.120Z,100140.68
2019-03-29T03:54:28.937Z,100135.70
2019-03-29T03:59:37.037Z,100135.00
2019-03-29T04:04:43.226Z,100137.97
2019-03-29T04:09:50.742Z,100134.11
2019-03-29T04:14:56.648Z,100134.26
2019-03-29T04:20:02.489Z,100136.67
2019-03-29T04:25:09.465Z,100130.73
2019-03-29T04:30:15.651Z,100130.43
2019-03-29T04:35:21.459Z,100128.78
2019-03-29T04:40:27.406Z,100126.91
2019-03-29T04:45:33.468Z,100131.69
2019-03-29T04:50:39.299Z,100136.88
2019-03-29T04:55:45.172Z,100137.92
2019-03-29T05:00:52.283Z,100135.28
2019-03-29T05:05:58.178Z,100136.77
2019-03-29T05:11:04.605Z,100139.72
2019-03-29T05:16:10.585Z,100132.11
2019-03-29T05:21:16.612Z,100137.55
2019-03-29T05:26:25.316Z,100133.05
2019-03-29T05:31:32.322Z,100130.22
2019-03-29T05:36:38.471Z,100131.02
2019-03-29T05:41:45.987Z,100132.75
2019-03-29T05:46:51.868Z,100123.72
2019-03-29T05:51:59.171Z,100132.27
2019-03-29T05:57:07.114Z,100127.70
2019-03-29T06:02:18.957Z,100126.74
2019-03-29T06:07:25.099Z,100124.66
2019-03-29T06:12:31.226Z,100121.56
2019-03-29T06:17:48.071Z,100123.83
2019-03-29T06:22:44.711Z,100127.25
2019-03-29T06:27:50.605Z,100124.08
2019-03-29T06:32:56.633Z,100114.62
2019-03-29T06:38:03.756Z,100113.89
2019-03-29T06:43:09.562Z,100114.91
2019-03-29T06:48:15.679Z,100110.25
2019-03-29T06:53:21.634Z,100115.31
2019-03-29T06:58:29.469Z,100114.80
2019-03-29T07:03:35.641Z,100107.86
2019-03-29T07:08:42.009Z,100104.86
2019-03-29T07:13:57.249Z,100097.87
2019-03-29T07:18:56.897Z,100100.44
2019-03-29T07:24:03.299Z,100089.17
2019-03-29T07:29:09.408Z,100094.87
2019-03-29T07:34:15.731Z,100090.09
2019-03-29T07:39:21.946Z,100089.92
2019-03-29T07:44:28.673Z,100095.39
2019-03-29T07:49:35.912Z,100085.74
2019-03-29T07:54:42.293Z,100079.83
2019-03-29T07:59:49.871Z,100077.27
2019-03-29T08:04:57.146Z,100082.81
2019-03-29T08:10:04.082Z,100073.33
2019-03-29T08:15:10.250Z,100077.37
2019-03-29T08:20:38.904Z,100078.38
2019-03-29T08:25:25.348Z,100079.34
2019-03-29T08:30:31.364Z,100077.84
2019-03-29T08:35:37.276Z,100066.33
2019-03-29T08:40:45.249Z,100071.98
2019-03-29T08:45:50.934Z,100064.52
2019-03-29T08:50:57.341Z,100063.11
2019-03-29T08:56:03.171Z,100062.94
2019-03-29T09:01:09.068Z,100059.80
2019-03-29T09:06:16.196Z,100055.91
2019-03-29T09:11:23.149Z,100052.43
2019-03-29T09:16:29.397Z,100049.92
2019-03-29T09:21:35.428Z,100047.60
2019-03-29T09:26:41.579Z,100040.33
2019-03-29T09:31:47.546Z,100048.04
2019-03-29T09:36:53.797Z,100037.57
2019-03-29T09:41:59.734Z,100035.83
2019-03-29T09:47:06.582Z,100029.17
2019-03-29T09:52:12.885Z,100013.78
2019-03-29T09:57:19.250Z,100009.27
2019-03-29T10:02:25.117Z,100006.08
2019-03-29T10:07:31.062Z,99998.60
2019-03-29T10:12:43.890Z,99992.23
2019-03-29T10:17:45.577Z,99983.31
2019-03-29T10:22:51.540Z,99984.95
2019-03-29T10:27:57.428Z,99967.69
2019-03-29T10:33:03.290Z,99968.94
2019-03-29T10:38:09.152Z,99954.41
2019-03-29T10:43:15.476Z,99954.29
2019-03-29T10:48:21.304Z,99948.12
2019-03-29T10:53:28.886Z,99941.83
2019-03-29T10:58:34.952Z,99941.23
2019-03-29T11:03:40.736Z,99936.77
2019-03-29T11:08:46.941Z,99937.33
2019-03-29T11:13:52.845Z,99916.70
2019-03-29T11:18:59.112Z,99908.98
2019-03-29T11:24:08.867Z,99904.61
2019-03-29T11:29:12.876Z,99895.28
2019-03-29T11:34:20.948Z,99889.55
2019-03-29T11:39:27.611Z,99883.66
2019-03-29T11:44:33.640Z,99882.61
2019-03-29T11:49:39.467Z,99869.89
2019-03-29T11:54:45.551Z,99866.84
2019-03-29T11:59:51.644Z,99868.14
2019-03-29T12:04:57.682Z,99866.98
2019-03-29T12:10:03.981Z,99848.87
2019-03-29T12:15:10.233Z,99844.84
2019-03-29T12:20:16.146Z,99843.90
2019-03-29T12:25:22.788Z,99827.80
2019-03-29T12:30:32.164Z,99814.16
2019-03-29T12:35:37.165Z,99805.06
2019-03-29T12:40:45.180Z,99796.92
2019-03-29T12:45:50.635Z,99799.09
2019-03-29T12:50:56.750Z,99788.77
2019-03-29T12:56:02.581Z,99790.89
2019-03-29T13:01:08.487Z,99779.48
2019-03-29T13:06:14.423Z,99777.36
2019-03-29T13:11:22.379Z,99770.79
2019-03-29T13:16:28.378Z,99758.67
2019-03-29T13:21:34.304Z,99748.66
2019-03-29T13:26:40.561Z,99740.31
2019-03-29T13:31:46.775Z,99726.16
2019-03-29T13:36:52.741Z,99725.03
2019-03-29T13:41:58.762Z,99705.27
2019-03-29T13:47:04.793Z,99707.44
2019-03-29T13:52:10.616Z,99701.67
2019-03-29T13:57:16.729Z,99700.27
2019-03-29T14:02:22.722Z,99686.03
2019-03-29T14:07:28.682Z,99688.27
2019-03-29T14:12:34.678Z,99689.41
2019-03-29T14:17:40.614Z,99688.21
2019-03-29T14:22:46.879Z,99671.36
2019-03-29T14:33:41.304Z,99656.81
2019-03-29T14:38:47.282Z,99651.91
2019-03-29T14:43:53.242Z,99635.95
2019-03-29T14:48:59.248Z,99630.58
2019-03-29T14:54:05.291Z,99636.59
2019-03-29T14:59:11.400Z,99631.14
2019-03-29T15:04:17.257Z,99632.26
2019-03-29T15:09:23.298Z,99626.81
2019-03-29T15:14:29.168Z,99616.03
2019-03-29T15:19:35.048Z,99620.47
2019-03-29T15:24:40.943Z,99603.41
2019-03-29T15:29:47.135Z,99599.42
2019-03-29T15:34:54.446Z,99594.43
2019-03-29T15:40:00.461Z,99583.28
2019-03-29T15:45:19.779Z,99578.55
2019-03-29T15:50:15.022Z,99577.11
2019-03-29T15:55:20.817Z,99582.91
2019-03-29T16:00:26.662Z,99583.07
2019-03-29T16:05:32.683Z,99578.58
2019-03-29T16:10:41.278Z,99572.18
2019-03-29T16:15:46.454Z,99574.17
2019-03-29T16:20:52.322Z,99563.47
2019-03-29T16:25:58.246Z,99562.39
2019-03-29T16:31:04.076Z,99560.06
2019-03-29T16:36:09.979Z,99560.47
2019-03-29T16:41:15.955Z,99547.30
2019-03-29T16:46:21.739Z,99556.98
2019-03-29T16:51:27.799Z,99554.17
2019-03-29T16:56:34.084Z,99553.24
2019-03-29T17:01:40.417Z,99548.02
2019-03-29T17:06:46.455Z,99549.36
2019-03-29T17:11:52.266Z,99550.33
2019-03-29T17:16:58.293Z,99538.23
2019-03-29T17:22:04.198Z,99548.72
2019-03-29T17:27:10.059Z,99548.40
2019-03-29T17:32:17.488Z,99547.73
2019-03-29T17:37:23.913Z,99556.12
2019-03-29T17:42:30.393Z,99558.47
2019-03-29T17:47:36.251Z,99559.09
2019-03-29T17:52:42.399Z,99556.39
2019-03-29T17:57:49.325Z,99557.00
2019-03-29T18:02:55.508Z,99566.16
2019-03-29T18:08:01.551Z,99567.84
2019-03-29T18:13:07.700Z,99566.23
2019-03-29T18:18:14.687Z,99569.73
2019-03-29T18:23:20.575Z,99570.64
2019-03-29T18:28:28.057Z,99574.00
2019-03-29T18:33:35.806Z,99570.65
2019-03-29T18:38:43.038Z,99570.92
2019-03-29T18:43:49.108Z,99574.98
2019-03-29T18:48:55.471Z,99581.05
2019-03-29T18:54:01.487Z,99580.14
2019-03-29T18:59:07.376Z,99587.50
2019-03-29T19:04:13.413Z,99588.22
2019-03-29T19:09:20.531Z,99581.04
2019-03-29T19:14:26.363Z,99574.67
2019-03-29T19:19:33.219Z,99572.31
2019-03-29T19:24:39.587Z,99566.84
2019-03-29T19:29:45.934Z,99570.95
2019-03-29T19:34:52.703Z,99566.33
2019-03-29T19:39:58.561Z,99568.12
2019-03-29T19:45:04.904Z,99560.80
2019-03-29T19:50:12.276Z,99554.04
2019-03-29T19:55:18.190Z,99552.98
2019-03-29T20:00:36.703Z,99544.53
2019-03-29T20:05:43.427Z,99546.91
2019-03-29T20:10:50.382Z,99542.48
2019-03-29T20:15:56.379Z,99542.99
2019-03-29T20:21:02.391Z,99545.51
2019-03-29T20:26:08.655Z,99543.55
2019-03-29T20:31:14.463Z,99543.21
2019-03-29T20:36:23.107Z,99544.55
2019-03-29T20:41:29.279Z,99535.83
2019-03-29T20:46:35.185Z,99538.90
2019-03-29T20:51:41.422Z,99535.80
2019-03-29T20:56:48.410Z,99536.41
2019-03-29T21:01:54.864Z,99538.06
2019-03-29T21:07:00.849Z,99542.14
2019-03-29T21:12:07.693Z,99541.20
2019-03-29T21:17:14.181Z,99532.94
2019-03-29T21:22:20.538Z,99540.05
2019-03-29T21:27:26.433Z,99536.64
2019-03-29T21:38:46.019Z,99534.24
2019-03-29T21:43:53.040Z,99525.58
2019-03-29T21:48:59.556Z,99525.49
2019-03-29T21:54:05.391Z,99524.96
2019-03-29T21:59:11.386Z,99520.23
2019-03-29T22:04:17.250Z,99515.51
2019-03-29T22:09:36.388Z,99509.94
2019-03-29T22:14:31.424Z,99507.17
2019-03-29T22:19:37.937Z,99505.25
2019-03-29T22:24:43.871Z,99504.84
2019-03-29T22:29:49.784Z,99498.89
2019-03-29T22:34:55.789Z,99492.81
2019-03-29T22:40:02.000Z,99490.34
2019-03-29T22:45:09.482Z,99492.94
2019-03-29T22:50:16.193Z,99486.06
2019-03-29T22:55:22.124Z,99477.66
2019-03-29T23:00:39.434Z,99478.25
2019-03-29T23:05:47.218Z,99474.34
2019-03-29T23:10:53.217Z,99471.41
2019-03-29T23:15:59.143Z,99467.95
2019-03-29T23:21:05.291Z,99463.80
2019-03-29T23:26:11.394Z,99457.67
2019-03-29T23:31:17.345Z,99459.94
2019-03-29T23:36:23.257Z,99458.52
2019-03-29T23:41:29.225Z,99452.30
2019-03-29T23:46:35.191Z,99448.34
2019-03-29T23:51:41.140Z,99448.52
2019-03-29T23:56:47.830Z,99446.77
